sensor_id;sensor_type;location;lat;lon;timestamp;pressure;altitude;pressure_sealevel;temperature;humidity
11108;BME280;5607;48.302;14.294;2023-02-01T00:02:06;98884.78;;;3.07;100.00
11108;BME280;5607;48.302;14.294;2023-02-01T00:04:52;98901.59;;;2.99;100.00
11108;BME280;5607;48.302;14.294;2023-02-01T00:07:39;98913.22;;;3.21;100.00
11108;BME280;5607;48.302;14.294;2023-02-01T00:10:25;98903.06;;;3.03;100.00
11108;BME280;5607;48.302;14.294;2023-02-01T00:13:12;98905.09;;;3.13;100.00
11108;BME280;5607;48.302;14.294;2023-02-01T00:16:06;98883.78;;;2.94;100.00
11108;BME280;5607;48.302;14.294;2023-02-01T00:21:47;98888.28;;;3.06;100.00
11108;BME280;5607;48.302;14.294;2023-02-01T00:24:34;98894.41;;;3.19;100.00
11108;BME280;5607;48.302;14.294;2023-02-01T00:27:20;98884.41;;;3.29;100.00
11108;BME280;5607;48.302;14.294;2023-02-01T00:30:08;98883.72;;;3.41;100.00
11108;BME280;5607;48.302;14.294;2023-02-01T00:32:54;98897.09;;;3.18;100.00
11108;BME280;5607;48.302;14.294;2023-02-01T00:35:41;98895.63;;;3.44;100.00
11108;BME280;5607;48.302;14.294;2023-02-01T00:38:32;98884.97;;;3.34;100.00
11108;BME280;5607;48.302;14.294;2023-02-01T00:41:20;98895.59;;;3.14;100.00
11108;BME280;5607;48.302;14.294;2023-02-01T00:44:07;98898.69;;;3.50;100.00
11108;BME280;5607;48.302;14.294;2023-02-01T00:46:54;98872.75;;;3.38;100.00
11108;BME280;5607;48.302;14.294;2023-02-01T00:49:41;98894.00;;;3.27;100.00
11108;BME280;5607;48.302;14.294;2023-02-01T00:52:27;98896.06;;;3.20;100.00
11108;BME280;5607;48.302;14.294;2023-02-01T00:55:14;98888.72;;;3.29;100.00
11108;BME280;5607;48.302;14.294;2023-02-01T00:58:00;98887.84;;;3.30;100.00
11108;BME280;5607;48.302;14.294;2023-02-01T01:00:47;98889.56;;;3.29;100.00
11108;BME280;5607;48.302;14.294;2023-02-01T01:03:47;98891.28;;;3.44;100.00
11108;BME280;5607;48.302;14.294;2023-02-01T01:06:34;98883.47;;;3.46;100.00
11108;BME280;5607;48.302;14.294;2023-02-01T01:09:21;98874.44;;;3.53;100.00
11108;BME280;5607;48.302;14.294;2023-02-01T01:12:07;98871.88;;;3.53;100.00
11108;BME280;5607;48.302;14.294;2023-02-01T01:14:54;98883.00;;;3.54;100.00
11108;BME280;5607;48.302;14.294;2023-02-01T01:17:40;98879.81;;;3.64;100.00
11108;BME280;5607;48.302;14.294;2023-02-01T01:20:27;98880.03;;;3.61;100.00
11108;BME280;5607;48.302;14.294;2023-02-01T01:23:14;98871.91;;;3.67;100.00
11108;BME280;5607;48.302;14.294;2023-02-01T01:26:05;98865.41;;;3.60;100.00
11108;BME280;5607;48.302;14.294;2023-02-01T01:28:52;98876.50;;;3.92;100.00
11108;BME280;5607;48.302;14.294;2023-02-01T01:31:38;98868.69;;;3.78;100.00
11108;BME280;5607;48.302;14.294;2023-02-01T01:34:25;98874.06;;;3.75;100.00
11108;BME280;5607;48.302;14.294;2023-02-01T01:37:11;98869.66;;;3.91;100.00
11108;BME280;5607;48.302;14.294;2023-02-01T01:39:58;98865.94;;;3.81;100.00
11108;BME280;5607;48.302;14.294;2023-02-01T01:42:45;98856.81;;;3.75;100.00
11108;BME280;5607;48.302;14.294;2023-02-01T01:45:33;98864.72;;;3.72;100.00
11108;BME280;5607;48.302;14.294;2023-02-01T01:48:25;98834.72;;;3.56;100.00
11108;BME280;5607;48.302;14.294;2023-02-01T01:51:15;98861.78;;;3.78;100.00
11108;BME280;5607;48.302;14.294;2023-02-01T01:57:03;98850.25;;;3.84;100.00
11108;BME280;5607;48.302;14.294;2023-02-01T02:00:00;98861.72;;;3.94;100.00
11108;BME280;5607;48.302;14.294;2023-02-01T02:02:54;98830.97;;;3.75;100.00
11108;BME280;5607;48.302;14.294;2023-02-01T02:05:42;98859.75;;;3.84;100.00
11108;BME280;5607;48.302;14.294;2023-02-01T02:08:29;98859.03;;;3.96;100.00
11108;BME280;5607;48.302;14.294;2023-02-01T02:11:16;98861.91;;;3.91;100.00
11108;BME280;5607;48.302;14.294;2023-02-01T02:14:03;98852.78;;;4.00;100.00
11108;BME280;5607;48.302;14.294;2023-02-01T02:17:31;98872.06;;;4.09;100.00
11108;BME280;5607;48.302;14.294;2023-02-01T02:27:17;98855.19;;;4.17;100.00
11108;BME280;5607;48.302;14.294;2023-02-01T02:36:48;98842.06;;;4.06;100.00
11108;BME280;5607;48.302;14.294;2023-02-01T02:43:20;98856.13;;;4.16;100.00
11108;BME280;5607;48.302;14.294;2023-02-01T02:46:31;98851.31;;;4.10;100.00
11108;BME280;5607;48.302;14.294;2023-02-01T02:53:16;98856.13;;;4.16;100.00
11108;BME280;5607;48.302;14.294;2023-02-01T02:56:23;98843.19;;;4.02;100.00
11108;BME280;5607;48.302;14.294;2023-02-01T02:59:30;98835.81;;;4.10;100.00
11108;BME280;5607;48.302;14.294;2023-02-01T03:02:37;98830.25;;;4.02;100.00
11108;BME280;5607;48.302;14.294;2023-02-01T03:05:47;98827.22;;;4.10;100.00
11108;BME280;5607;48.302;14.294;2023-02-01T03:08:36;98832.94;;;4.15;100.00
11108;BME280;5607;48.302;14.294;2023-02-01T03:11:23;98829.41;;;4.16;100.00
11108;BME280;5607;48.302;14.294;2023-02-01T03:14:32;98822.59;;;4.15;100.00
11108;BME280;5607;48.302;14.294;2023-02-01T03:17:24;98828.06;;;4.10;100.00
11108;BME280;5607;48.302;14.294;2023-02-01T03:20:14;98808.97;;;3.98;100.00
11108;BME280;5607;48.302;14.294;2023-02-01T03:23:06;98819.84;;;4.18;100.00
11108;BME280;5607;48.302;14.294;2023-02-01T03:25:55;98816.97;;;4.22;100.00
11108;BME280;5607;48.302;14.294;2023-02-01T03:28:49;98804.69;;;4.26;100.00
11108;BME280;5607;48.302;14.294;2023-02-01T03:31:39;98807.38;;;4.24;100.00
11108;BME280;5607;48.302;14.294;2023-02-01T03:34:25;98806.53;;;4.24;100.00
11108;BME280;5607;48.302;14.294;2023-02-01T03:37:15;98785.03;;;4.09;100.00
11108;BME280;5607;48.302;14.294;2023-02-01T03:40:07;98798.03;;;4.22;100.00
11108;BME280;5607;48.302;14.294;2023-02-01T03:42:59;98798.47;;;4.28;100.00
11108;BME280;5607;48.302;14.294;2023-02-01T03:45:50;98796.66;;;4.30;100.00
11108;BME280;5607;48.302;14.294;2023-02-01T03:48:39;98786.31;;;4.30;100.00
11108;BME280;5607;48.302;14.294;2023-02-01T03:51:26;98791.22;;;4.35;100.00
11108;BME280;5607;48.302;14.294;2023-02-01T03:54:14;98756.06;;;4.18;100.00
11108;BME280;5607;48.302;14.294;2023-02-01T03:57:06;98770.44;;;4.37;100.00
11108;BME280;5607;48.302;14.294;2023-02-01T04:00:06;98792.28;;;4.45;100.00
11108;BME280;5607;48.302;14.294;2023-02-01T04:02:54;98787.00;;;4.47;100.00
11108;BME280;5607;48.302;14.294;2023-02-01T04:05:41;98790.25;;;4.50;100.00
11108;BME280;5607;48.302;14.294;2023-02-01T04:08:27;98788.38;;;4.52;100.00
11108;BME280;5607;48.302;14.294;2023-02-01T04:11:14;98780.63;;;4.52;100.00
11108;BME280;5607;48.302;14.294;2023-02-01T04:14:01;98779.19;;;4.48;100.00
11108;BME280;5607;48.302;14.294;2023-02-01T04:16:50;98744.31;;;4.41;100.00
11108;BME280;5607;48.302;14.294;2023-02-01T04:19:37;98747.00;;;4.25;100.00
11108;BME280;5607;48.302;14.294;2023-02-01T04:22:23;98774.72;;;4.50;100.00
11108;BME280;5607;48.302;14.294;2023-02-01T04:25:10;98774.63;;;4.52;100.00
11108;BME280;5607;48.302;14.294;2023-02-01T04:27:57;98762.13;;;4.73;100.00
11108;BME280;5607;48.302;14.294;2023-02-01T04:30:43;98735.69;;;4.41;100.00
11108;BME280;5607;48.302;14.294;2023-02-01T04:33:30;98761.13;;;4.61;100.00
11108;BME280;5607;48.302;14.294;2023-02-01T04:36:19;98751.41;;;4.65;100.00
11108;BME280;5607;48.302;14.294;2023-02-01T04:39:09;98737.31;;;4.56;100.00
11108;BME280;5607;48.302;14.294;2023-02-01T04:41:56;98745.78;;;4.58;100.00
11108;BME280;5607;48.302;14.294;2023-02-01T04:44:42;98735.59;;;4.69;100.00
11108;BME280;5607;48.302;14.294;2023-02-01T04:47:29;98731.94;;;4.59;100.00
11108;BME280;5607;48.302;14.294;2023-02-01T04:50:16;98744.34;;;4.54;100.00
11108;BME280;5607;48.302;14.294;2023-02-01T04:53:02;98740.63;;;4.58;100.00
11108;BME280;5607;48.302;14.294;2023-02-01T04:55:49;98746.63;;;4.58;100.00
11108;BME280;5607;48.302;14.294;2023-02-01T04:58:36;98739.50;;;4.62;100.00
11108;BME280;5607;48.302;14.294;2023-02-01T05:01:23;98734.34;;;4.62;100.00
11108;BME280;5607;48.302;14.294;2023-02-01T05:04:12;98737.47;;;4.67;100.00
11108;BME280;5607;48.302;14.294;2023-02-01T05:06:59;98731.53;;;4.65;100.00
11108;BME280;5607;48.302;14.294;2023-02-01T05:09:46;98730.16;;;4.74;100.00
11108;BME280;5607;48.302;14.294;2023-02-01T05:12:32;98704.97;;;4.63;100.00
11108;BME280;5607;48.302;14.294;2023-02-01T05:15:37;98734.56;;;4.72;100.00
11108;BME280;5607;48.302;14.294;2023-02-01T05:18:24;98735.03;;;4.78;100.00
11108;BME280;5607;48.302;14.294;2023-02-01T05:21:10;98739.66;;;4.73;100.00
11108;BME280;5607;48.302;14.294;2023-02-01T05:23:57;98726.19;;;4.68;100.00
11108;BME280;5607;48.302;14.294;2023-02-01T05:26:56;98735.44;;;4.72;100.00
11108;BME280;5607;48.302;14.294;2023-02-01T05:29:42;98738.41;;;4.66;100.00
11108;BME280;5607;48.302;14.294;2023-02-01T05:32:29;98738.88;;;4.85;100.00
11108;BME280;5607;48.302;14.294;2023-02-01T05:35:15;98736.75;;;4.78;100.00
11108;BME280;5607;48.302;14.294;2023-02-01T05:38:02;98740.00;;;4.81;100.00
11108;BME280;5607;48.302;14.294;2023-02-01T05:40:48;98723.34;;;4.85;100.00
11108;BME280;5607;48.302;14.294;2023-02-01T05:43:36;98738.34;;;4.80;100.00
11108;BME280;5607;48.302;14.294;2023-02-01T05:46:23;98740.22;;;4.78;100.00
11108;BME280;5607;48.302;14.294;2023-02-01T05:49:10;98738.63;;;4.76;100.00
11108;BME280;5607;48.302;14.294;2023-02-01T05:51:56;98715.41;;;4.62;100.00
11108;BME280;5607;48.302;14.294;2023-02-01T05:54:43;98738.88;;;4.85;100.00
11108;BME280;5607;48.302;14.294;2023-02-01T05:57:29;98737.91;;;4.74;100.00
11108;BME280;5607;48.302;14.294;2023-02-01T06:00:16;98699.22;;;4.72;100.00
11108;BME280;5607;48.302;14.294;2023-02-01T06:03:03;98717.25;;;4.86;100.00
11108;BME280;5607;48.302;14.294;2023-02-01T06:05:50;98713.16;;;4.70;100.00
11108;BME280;5607;48.302;14.294;2023-02-01T06:08:36;98725.13;;;4.85;100.00
11108;BME280;5607;48.302;14.294;2023-02-01T06:11:26;98722.09;;;4.78;100.00
11108;BME280;5607;48.302;14.294;2023-02-01T06:14:14;98709.84;;;4.68;100.00
11108;BME280;5607;48.302;14.294;2023-02-01T06:17:00;98729.94;;;4.77;100.00
11108;BME280;5607;48.302;14.294;2023-02-01T06:19:47;98713.16;;;4.70;100.00
11108;BME280;5607;48.302;14.294;2023-02-01T06:22:34;98730.59;;;4.93;100.00
11108;BME280;5607;48.302;14.294;2023-02-01T06:25:22;98732.13;;;4.83;100.00
11108;BME280;5607;48.302;14.294;2023-02-01T06:28:08;98739.34;;;4.78;100.00
11108;BME280;5607;48.302;14.294;2023-02-01T06:30:55;98752.00;;;4.82;100.00
11108;BME280;5607;48.302;14.294;2023-02-01T06:33:44;98745.13;;;4.69;100.00
11108;BME280;5607;48.302;14.294;2023-02-01T06:36:32;98761.41;;;4.83;100.00
11108;BME280;5607;48.302;14.294;2023-02-01T06:39:18;98740.13;;;4.66;100.00
11108;BME280;5607;48.302;14.294;2023-02-01T06:42:05;98742.88;;;4.77;100.00
11108;BME280;5607;48.302;14.294;2023-02-01T06:44:52;98742.06;;;4.89;100.00
11108;BME280;5607;48.302;14.294;2023-02-01T06:47:38;98748.56;;;4.82;100.00
11108;BME280;5607;48.302;14.294;2023-02-01T06:50:25;98750.56;;;4.78;100.00
11108;BME280;5607;48.302;14.294;2023-02-01T06:53:12;98752.03;;;4.95;100.00
11108;BME280;5607;48.302;14.294;2023-02-01T06:56:02;98751.84;;;4.71;100.00
11108;BME280;5607;48.302;14.294;2023-02-01T06:58:49;98739.34;;;4.78;100.00
11108;BME280;5607;48.302;14.294;2023-02-01T07:01:35;98741.97;;;4.91;100.00
11108;BME280;5607;48.302;14.294;2023-02-01T07:04:22;98747.16;;;4.91;100.00
11108;BME280;5607;48.302;14.294;2023-02-01T07:07:09;98743.94;;;4.87;100.00
11108;BME280;5607;48.302;14.294;2023-02-01T07:09:55;98740.09;;;4.80;100.00
11108;BME280;5607;48.302;14.294;2023-02-01T07:12:42;98742.91;;;4.90;100.00
11108;BME280;5607;48.302;14.294;2023-02-01T07:15:28;98737.34;;;5.08;100.00
11108;BME280;5607;48.302;14.294;2023-02-01T07:18:15;98732.78;;;4.99;100.00
11108;BME280;5607;48.302;14.294;2023-02-01T07:21:02;98735.69;;;4.95;100.00
11108;BME280;5607;48.302;14.294;2023-02-01T07:23:48;98743.44;;;4.95;100.00
11108;BME280;5607;48.302;14.294;2023-02-01T07:26:35;98736.41;;;4.97;100.00
11108;BME280;5607;48.302;14.294;2023-02-01T07:29:21;98725.63;;;4.90;100.00
11108;BME280;5607;48.302;14.294;2023-02-01T07:32:08;98733.88;;;4.82;100.00
11108;BME280;5607;48.302;14.294;2023-02-01T07:34:54;98731.94;;;4.86;100.00
11108;BME280;5607;48.302;14.294;2023-02-01T07:37:41;98735.78;;;4.93;100.00
11108;BME280;5607;48.302;14.294;2023-02-01T07:40:27;98704.31;;;4.86;100.00
11108;BME280;5607;48.302;14.294;2023-02-01T07:43:17;98718.28;;;4.97;100.00
11108;BME280;5607;48.302;14.294;2023-02-01T07:46:04;98716.59;;;4.83;100.00
11108;BME280;5607;48.302;14.294;2023-02-01T07:48:51;98715.78;;;4.82;100.00
11108;BME280;5607;48.302;14.294;2023-02-01T07:51:38;98718.38;;;4.82;100.00
11108;BME280;5607;48.302;14.294;2023-02-01T07:54:24;98721.88;;;4.81;100.00
11108;BME280;5607;48.302;14.294;2023-02-01T07:57:11;98728.63;;;4.97;100.00
11108;BME280;5607;48.302;14.294;2023-02-01T07:59:58;98732.06;;;4.97;100.00
11108;BME280;5607;48.302;14.294;2023-02-01T08:03:04;98717.34;;;4.85;100.00
11108;BME280;5607;48.302;14.294;2023-02-01T08:05:54;98715.47;;;4.87;100.00
11108;BME280;5607;48.302;14.294;2023-02-01T08:08:41;98710.31;;;4.87;100.00
11108;BME280;5607;48.302;14.294;2023-02-01T08:11:31;98714.78;;;4.98;100.00
11108;BME280;5607;48.302;14.294;2023-02-01T08:14:18;98718.19;;;4.85;100.00
11108;BME280;5607;48.302;14.294;2023-02-01T08:17:05;98712.19;;;4.85;100.00
11108;BME280;5607;48.302;14.294;2023-02-01T08:19:51;98705.31;;;4.84;100.00
11108;BME280;5607;48.302;14.294;2023-02-01T08:22:38;98691.88;;;4.79;100.00
11108;BME280;5607;48.302;14.294;2023-02-01T08:25:24;98688.88;;;4.72;100.00
11108;BME280;5607;48.302;14.294;2023-02-01T08:28:11;98684.28;;;4.63;100.00
11108;BME280;5607;48.302;14.294;2023-02-01T08:30:57;98687.59;;;4.78;100.00
11108;BME280;5607;48.302;14.294;2023-02-01T08:33:51;98678.00;;;4.67;100.00
11108;BME280;5607;48.302;14.294;2023-02-01T08:36:38;98678.72;;;4.69;100.00
11108;BME280;5607;48.302;14.294;2023-02-01T08:39:26;98696.94;;;4.80;100.00
11108;BME280;5607;48.302;14.294;2023-02-01T08:42:13;98662.91;;;4.74;100.00
11108;BME280;5607;48.302;14.294;2023-02-01T08:45:25;98694.97;;;4.84;100.00
11108;BME280;5607;48.302;14.294;2023-02-01T08:48:12;98699.84;;;4.89;100.00
11108;BME280;5607;48.302;14.294;2023-02-01T08:51:04;98693.03;;;4.88;100.00
11108;BME280;5607;48.302;14.294;2023-02-01T08:53:52;98705.69;;;5.05;100.00
11108;BME280;5607;48.302;14.294;2023-02-01T08:56:39;98696.53;;;4.86;100.00
11108;BME280;5607;48.302;14.294;2023-02-01T08:59:25;98683.25;;;4.66;100.00
11108;BME280;5607;48.302;14.294;2023-02-01T09:02:13;98674.31;;;4.57;100.00
11108;BME280;5607;48.302;14.294;2023-02-01T09:05:00;98678.91;;;4.66;100.00
11108;BME280;5607;48.302;14.294;2023-02-01T09:07:46;98681.44;;;4.80;100.00
11108;BME280;5607;48.302;14.294;2023-02-01T09:10:34;98658.34;;;4.77;100.00
11108;BME280;5607;48.302;14.294;2023-02-01T09:13:20;98685.97;;;4.77;100.00
11108;BME280;5607;48.302;14.294;2023-02-01T09:16:08;98681.63;;;4.77;100.00
11108;BME280;5607;48.302;14.294;2023-02-01T09:18:55;98691.38;;;4.86;100.00
11108;BME280;5607;48.302;14.294;2023-02-01T09:21:42;98701.25;;;4.67;100.00
11108;BME280;5607;48.302;14.294;2023-02-01T09:24:28;98692.38;;;4.84;100.00
11108;BME280;5607;48.302;14.294;2023-02-01T09:27:15;98679.78;;;4.92;100.00
11108;BME280;5607;48.302;14.294;2023-02-01T09:30:03;98694.53;;;4.77;100.00
11108;BME280;5607;48.302;14.294;2023-02-01T09:32:50;98684.59;;;4.71;100.00
11108;BME280;5607;48.302;14.294;2023-02-01T09:35:37;98688.06;;;4.84;100.00
11108;BME280;5607;48.302;14.294;2023-02-01T09:38:24;98680.25;;;4.72;100.00
11108;BME280;5607;48.302;14.294;2023-02-01T09:47:28;98692.78;;;4.78;100.00
11108;BME280;5607;48.302;14.294;2023-02-01T09:50:19;98682.16;;;4.82;100.00
11108;BME280;5607;48.302;14.294;2023-02-01T09:53:16;98686.94;;;5.01;100.00
11108;BME280;5607;48.302;14.294;2023-02-01T09:56:07;98681.88;;;5.12;100.00
11108;BME280;5607;48.302;14.294;2023-02-01T10:01:49;98681.44;;;4.93;100.00
11108;BME280;5607;48.302;14.294;2023-02-01T10:04:35;98677.66;;;5.11;100.00
11108;BME280;5607;48.302;14.294;2023-02-01T10:07:37;98672.56;;;5.10;100.00
11108;BME280;5607;48.302;14.294;2023-02-01T10:26:31;98637.31;;;4.56;100.00
11108;BME280;5607;48.302;14.294;2023-02-01T10:29:20;98667.97;;;4.75;100.00
11108;BME280;5607;48.302;14.294;2023-02-01T10:32:16;98688.09;;;4.57;100.00
11108;BME280;5607;48.302;14.294;2023-02-01T10:35:28;98688.75;;;4.47;100.00
11108;BME280;5607;48.302;14.294;2023-02-01T10:38:27;98701.56;;;4.36;100.00
11108;BME280;5607;48.302;14.294;2023-02-01T10:41:17;98697.06;;;4.25;100.00
11108;BME280;5607;48.302;14.294;2023-02-01T10:44:20;98698.16;;;4.21;100.00
11108;BME280;5607;48.302;14.294;2023-02-01T10:47:10;98704.56;;;4.15;100.00
11108;BME280;5607;48.302;14.294;2023-02-01T10:53:44;98703.00;;;4.13;100.00
11108;BME280;5607;48.302;14.294;2023-02-01T10:56:37;98705.34;;;3.89;100.00
11108;BME280;5607;48.302;14.294;2023-02-01T10:59:25;98684.91;;;3.57;100.00
11108;BME280;5607;48.302;14.294;2023-02-01T11:02:43;98710.69;;;3.71;100.00
11108;BME280;5607;48.302;14.294;2023-02-01T11:05:43;98709.22;;;3.53;100.00
11108;BME280;5607;48.302;14.294;2023-02-01T11:08:31;98719.19;;;3.45;100.00
11108;BME280;5607;48.302;14.294;2023-02-01T11:11:18;98717.78;;;3.25;100.00
11108;BME280;5607;48.302;14.294;2023-02-01T11:14:15;98724.22;;;3.18;100.00
11108;BME280;5607;48.302;14.294;2023-02-01T11:17:26;98722.25;;;3.07;100.00
11108;BME280;5607;48.302;14.294;2023-02-01T11:20:16;98699.22;;;3.04;100.00
11108;BME280;5607;48.302;14.294;2023-02-01T11:23:03;98726.72;;;3.34;100.00
11108;BME280;5607;48.302;14.294;2023-02-01T11:25:53;98699.63;;;3.27;100.00
11108;BME280;5607;48.302;14.294;2023-02-01T11:28:47;98714.66;;;3.34;100.00
11108;BME280;5607;48.302;14.294;2023-02-01T11:31:37;98702.59;;;3.63;100.00
11108;BME280;5607;48.302;14.294;2023-02-01T11:34:43;98693.91;;;3.78;100.00
11108;BME280;5607;48.302;14.294;2023-02-01T11:37:38;98662.22;;;3.62;100.00
11108;BME280;5607;48.302;14.294;2023-02-01T11:40:34;98689.31;;;4.25;100.00
11108;BME280;5607;48.302;14.294;2023-02-01T11:43:27;98690.44;;;4.48;100.00
11108;BME280;5607;48.302;14.294;2023-02-01T11:46:18;98688.66;;;4.75;100.00
11108;BME280;5607;48.302;14.294;2023-02-01T11:49:21;98677.78;;;4.83;100.00
11108;BME280;5607;48.302;14.294;2023-02-01T11:55:46;98678.88;;;4.53;100.00
11108;BME280;5607;48.302;14.294;2023-02-01T12:19:39;98639.09;;;4.69;100.00
11108;BME280;5607;48.302;14.294;2023-02-01T12:22:48;98618.69;;;4.64;100.00
11108;BME280;5607;48.302;14.294;2023-02-01T12:25:41;98611.06;;;4.75;100.00
11108;BME280;5607;48.302;14.294;2023-02-01T12:31:26;98609.19;;;5.03;100.00
11108;BME280;5607;48.302;14.294;2023-02-01T12:34:53;98611.69;;;4.79;100.00
11108;BME280;5607;48.302;14.294;2023-02-01T12:43:54;98616.88;;;4.92;100.00
11108;BME280;5607;48.302;14.294;2023-02-01T12:46:50;98616.53;;;4.96;100.00
11108;BME280;5607;48.302;14.294;2023-02-01T12:52:50;98586.53;;;5.06;100.00
11108;BME280;5607;48.302;14.294;2023-02-01T12:55:48;98617.56;;;5.32;100.00
11108;BME280;5607;48.302;14.294;2023-02-01T13:01:45;98604.47;;;5.59;100.00
11108;BME280;5607;48.302;14.294;2023-02-01T13:04:42;98619.31;;;5.57;100.00
11108;BME280;5607;48.302;14.294;2023-02-01T13:07:38;98610.72;;;5.44;100.00
11108;BME280;5607;48.302;14.294;2023-02-01T13:10:38;98656.94;;;5.37;100.00
11108;BME280;5607;48.302;14.294;2023-02-01T13:14:19;98662.63;;;4.91;100.00
11108;BME280;5607;48.302;14.294;2023-02-01T13:17:15;98669.09;;;3.76;100.00
11108;BME280;5607;48.302;14.294;2023-02-01T13:25:53;98694.09;;;3.18;100.00
11108;BME280;5607;48.302;14.294;2023-02-01T13:28:44;98680.75;;;3.26;100.00
11108;BME280;5607;48.302;14.294;2023-02-01T13:40:44;98656.13;;;3.35;100.00
11108;BME280;5607;48.302;14.294;2023-02-01T13:43:34;98659.00;;;3.44;100.00
11108;BME280;5607;48.302;14.294;2023-02-01T13:46:21;98660.19;;;3.53;100.00
11108;BME280;5607;48.302;14.294;2023-02-01T13:49:19;98649.69;;;3.56;100.00
11108;BME280;5607;48.302;14.294;2023-02-01T13:52:23;98659.88;;;3.72;100.00
11108;BME280;5607;48.302;14.294;2023-02-01T13:58:22;98671.28;;;3.96;100.00
11108;BME280;5607;48.302;14.294;2023-02-01T14:04:49;98675.63;;;4.10;100.00
11108;BME280;5607;48.302;14.294;2023-02-01T14:07:36;98652.81;;;4.02;100.00
11108;BME280;5607;48.302;14.294;2023-02-01T14:10:50;98662.75;;;4.09;100.00
11108;BME280;5607;48.302;14.294;2023-02-01T14:13:39;98668.41;;;4.01;100.00
11108;BME280;5607;48.302;14.294;2023-02-01T14:16:26;98669.31;;;4.14;100.00
11108;BME280;5607;48.302;14.294;2023-02-01T14:25:16;98660.72;;;4.14;100.00
11108;BME280;5607;48.302;14.294;2023-02-01T14:28:32;98651.16;;;4.01;100.00
11108;BME280;5607;48.302;14.294;2023-02-01T14:34:30;98665.13;;;4.26;100.00
11108;BME280;5607;48.302;14.294;2023-02-01T14:40:15;98664.44;;;4.37;100.00
11108;BME280;5607;48.302;14.294;2023-02-01T14:43:02;98653.09;;;4.52;100.00
11108;BME280;5607;48.302;14.294;2023-02-01T14:45:49;98647.53;;;4.58;100.00
11108;BME280;5607;48.302;14.294;2023-02-01T14:51:24;98649.84;;;4.63;100.00
11108;BME280;5607;48.302;14.294;2023-02-01T14:54:12;98658.84;;;4.70;100.00
11108;BME280;5607;48.302;14.294;2023-02-01T14:57:00;98653.97;;;4.65;100.00
11108;BME280;5607;48.302;14.294;2023-02-01T14:59:49;98667.00;;;4.64;100.00
11108;BME280;5607;48.302;14.294;2023-02-01T15:02:39;98659.44;;;4.61;100.00
11108;BME280;5607;48.302;14.294;2023-02-01T15:05:32;98663.06;;;4.58;100.00
11108;BME280;5607;48.302;14.294;2023-02-01T15:08:28;98663.81;;;4.60;100.00
11108;BME280;5607;48.302;14.294;2023-02-01T15:11:16;98664.72;;;4.72;100.00
11108;BME280;5607;48.302;14.294;2023-02-01T15:14:13;98653.56;;;4.71;100.00
11108;BME280;5607;48.302;14.294;2023-02-01T15:17:00;98638.88;;;4.72;100.00
11108;BME280;5607;48.302;14.294;2023-02-01T15:22:40;98644.38;;;4.67;100.00
11108;BME280;5607;48.302;14.294;2023-02-01T15:25:30;98645.50;;;4.76;100.00
11108;BME280;5607;48.302;14.294;2023-02-01T15:28:17;98644.28;;;4.81;100.00
11108;BME280;5607;48.302;14.294;2023-02-01T15:31:05;98633.22;;;4.79;100.00
11108;BME280;5607;48.302;14.294;2023-02-01T15:33:57;98638.41;;;4.92;100.00
11108;BME280;5607;48.302;14.294;2023-02-01T15:36:45;98647.19;;;4.90;100.00
11108;BME280;5607;48.302;14.294;2023-02-01T15:39:32;98642.00;;;4.90;100.00
11108;BME280;5607;48.302;14.294;2023-02-01T15:42:20;98647.59;;;4.96;100.00
11108;BME280;5607;48.302;14.294;2023-02-01T15:45:28;98645.13;;;5.07;100.00
11108;BME280;5607;48.302;14.294;2023-02-01T15:48:21;98632.06;;;4.96;100.00
11108;BME280;5607;48.302;14.294;2023-02-01T15:51:18;98644.41;;;5.05;100.00
11108;BME280;5607;48.302;14.294;2023-02-01T15:54:07;98652.28;;;5.04;100.00
11108;BME280;5607;48.302;14.294;2023-02-01T15:56:55;98647.19;;;5.02;100.00
11108;BME280;5607;48.302;14.294;2023-02-01T15:59:43;98695.88;;;5.23;100.00
11108;BME280;5607;48.302;14.294;2023-02-01T16:02:36;98687.22;;;4.97;100.00
11108;BME280;5607;48.302;14.294;2023-02-01T16:05:39;98690.53;;;4.73;100.00
11108;BME280;5607;48.302;14.294;2023-02-01T16:08:28;98693.69;;;4.64;100.00
11108;BME280;5607;48.302;14.294;2023-02-01T16:11:23;98693.75;;;4.50;100.00
11108;BME280;5607;48.302;14.294;2023-02-01T16:14:10;98696.22;;;4.51;100.00
11108;BME280;5607;48.302;14.294;2023-02-01T16:16:58;98690.34;;;4.49;100.00
11108;BME280;5607;48.302;14.294;2023-02-01T16:19:45;98692.88;;;4.37;100.00
11108;BME280;5607;48.302;14.294;2023-02-01T16:22:31;98691.63;;;4.29;100.00
11108;BME280;5607;48.302;14.294;2023-02-01T16:25:18;98700.63;;;4.37;100.00
11108;BME280;5607;48.302;14.294;2023-02-01T16:28:05;98700.19;;;4.30;100.00
11108;BME280;5607;48.302;14.294;2023-02-01T16:30:52;98693.44;;;4.27;100.00
11108;BME280;5607;48.302;14.294;2023-02-01T16:33:38;98693.25;;;4.30;100.00
11108;BME280;5607;48.302;14.294;2023-02-01T16:36:25;98703.31;;;4.35;100.00
11108;BME280;5607;48.302;14.294;2023-02-01T16:39:13;98692.81;;;4.51;100.00
11108;BME280;5607;48.302;14.294;2023-02-01T16:42:00;98688.75;;;4.47;100.00
11108;BME280;5607;48.302;14.294;2023-02-01T16:44:51;98677.31;;;4.51;100.00
11108;BME280;5607;48.302;14.294;2023-02-01T16:47:40;98667.91;;;4.50;100.00
11108;BME280;5607;48.302;14.294;2023-02-01T16:50:32;98672.25;;;4.49;100.00
11108;BME280;5607;48.302;14.294;2023-02-01T16:53:19;98662.22;;;4.57;100.00
11108;BME280;5607;48.302;14.294;2023-02-01T16:56:14;98667.84;;;4.77;100.00
11108;BME280;5607;48.302;14.294;2023-02-01T16:59:01;98668.34;;;4.69;100.00
11108;BME280;5607;48.302;14.294;2023-02-01T17:01:48;98654.47;;;4.57;100.00
11108;BME280;5607;48.302;14.294;2023-02-01T17:04:35;98673.94;;;4.63;100.00
11108;BME280;5607;48.302;14.294;2023-02-01T17:07:22;98665.06;;;4.67;100.00
11108;BME280;5607;48.302;14.294;2023-02-01T17:10:20;98657.19;;;4.69;100.00
11108;BME280;5607;48.302;14.294;2023-02-01T17:13:13;98655.56;;;4.80;100.00
11108;BME280;5607;48.302;14.294;2023-02-01T17:19:12;98650.50;;;4.92;100.00
11108;BME280;5607;48.302;14.294;2023-02-01T17:21:59;98647.53;;;4.98;100.00